Time;durP1;ratioP1;P1;durP2;ratioP2;P2;SDS_P1;SDS_P2;PMS_P1;PMS_P2;Temp;Humidity;BMP_temperature;BMP_pressure;BME280_temperature;BME280_humidity;BME280_pressure;Samples;Min_cycle;Max_cycle;Signal;HPM_P1;HPM_P2
2022/03/17 00:02:17;;;;;;;107.20;56.08;;;;;;;1.01;64.40;101945.36;1749978;82;25792;-73
2022/03/17 00:04:44;;;;;;;112.40;57.67;;;;;;;0.97;64.66;101951.61;1750487;82;27911;-72
2022/03/17 00:07:10;;;;;;;114.70;59.20;;;;;;;0.95;64.96;101945.64;1750504;82;25725;-72
2022/03/17 00:09:37;;;;;;;111.97;56.63;;;;;;;0.95;65.14;101943.50;1750617;81;25401;-73
2022/03/17 00:12:04;;;;;;;109.12;56.65;;;;;;;0.92;65.16;101938.89;1750389;82;25930;-72
2022/03/17 00:14:30;;;;;;;99.97;56.30;;;;;;;0.92;65.64;101940.23;1725023;82;25704;-72
2022/03/17 00:16:56;;;;;;;102.70;52.23;;;;;;;0.95;65.92;101942.98;1725185;82;27322;-72
2022/03/17 00:19:23;;;;;;;106.95;54.80;;;;;;;0.97;66.41;101942.29;1750280;82;25634;-71
2022/03/17 00:21:49;;;;;;;102.15;54.00;;;;;;;0.99;66.34;101942.90;1750577;82;25371;-71
2022/03/17 00:24:17;;;;;;;92.62;52.27;;;;;;;0.99;66.58;101938.90;1750591;82;26046;-71
2022/03/17 00:26:45;;;;;;;100.35;52.00;;;;;;;1.03;66.66;101947.30;1725256;82;25658;-71
2022/03/17 00:29:11;;;;;;;108.10;54.65;;;;;;;1.05;66.89;101943.91;1750639;81;27332;-72
2022/03/17 00:31:39;;;;;;;103.60;54.83;;;;;;;1.05;66.44;101942.06;1750437;82;25298;-72
2022/03/17 00:34:08;;;;;;;99.55;52.38;;;;;;;1.06;66.52;101937.05;1750388;81;25570;-70
2022/03/17 00:36:35;;;;;;;100.30;54.53;;;;;;;1.07;66.58;101942.70;1750851;82;26186;-71
2022/03/17 00:39:05;;;;;;;103.83;55.35;;;;;;;1.07;66.57;101941.37;1750514;82;25627;-72
2022/03/17 00:41:32;;;;;;;101.00;54.03;;;;;;;1.07;66.35;101948.03;1750685;81;27308;-71
2022/03/17 00:43:59;;;;;;;103.47;56.20;;;;;;;1.09;66.45;101954.46;1750832;82;25725;-72
2022/03/17 00:46:25;;;;;;;95.70;50.75;;;;;;;1.09;66.50;101955.80;1750805;82;25772;-71
2022/03/17 00:48:52;;;;;;;93.17;48.75;;;;;;;1.05;66.37;101954.05;1750503;82;26602;-71
2022/03/17 00:51:18;;;;;;;105.30;53.78;;;;;;;1.05;66.65;101959.38;1750633;82;25560;-71
2022/03/17 00:53:46;;;;;;;94.55;48.23;;;;;;;1.05;66.39;101959.38;1749948;82;27464;-71
2022/03/17 00:56:13;;;;;;;96.67;50.58;;;;;;;1.05;66.64;101958.58;1749906;82;25743;-71
2022/03/17 00:58:39;;;;;;;94.67;51.88;;;;;;;1.03;66.26;101956.11;1750910;81;25644;-71
2022/03/17 01:01:08;;;;;;;101.07;53.15;;;;;;;1.01;66.44;101956.83;1725668;81;25949;-71
2022/03/17 01:03:34;;;;;;;96.57;52.93;;;;;;;0.98;66.20;101957.75;1752779;81;25588;-71
2022/03/17 01:06:00;;;;;;;95.28;51.58;;;;;;;0.93;66.31;101951.17;1752793;81;27435;-71
2022/03/17 01:08:26;;;;;;;94.52;50.45;;;;;;;0.90;66.68;101956.09;1752688;81;25547;-71
2022/03/17 01:10:53;;;;;;;100.75;55.70;;;;;;;0.88;66.73;101949.63;1752793;81;25528;-71
2022/03/17 01:13:19;;;;;;;94.13;50.80;;;;;;;0.86;66.35;101954.88;1725160;81;26587;-71
2022/03/17 01:15:46;;;;;;;102.55;54.53;;;;;;;0.81;66.51;101946.67;1752803;81;25383;-71
2022/03/17 01:18:13;;;;;;;95.07;48.63;;;;;;;0.79;66.46;101947.39;1752813;81;27434;-71
2022/03/17 01:20:40;;;;;;;84.03;47.00;;;;;;;0.77;67.14;101948.92;1752713;81;25540;-71
2022/03/17 01:23:08;;;;;;;84.32;45.00;;;;;;;0.73;68.05;101952.50;1752811;81;25544;-71
2022/03/17 01:25:34;;;;;;;96.72;52.17;;;;;;;0.72;67.08;101957.52;1752742;81;25857;-71
2022/03/17 01:28:01;;;;;;;106.80;56.53;;;;;;;0.68;66.93;101948.30;1752833;81;25614;-71
2022/03/17 01:30:28;;;;;;;100.50;53.90;;;;;;;0.66;67.02;101960.97;1752793;81;27321;-72
2022/03/17 01:32:54;;;;;;;93.52;51.08;;;;;;;0.63;67.06;101963.22;1752682;81;25725;-71
2022/03/17 01:35:21;;;;;;;101.42;55.52;;;;;;;0.57;67.02;101963.52;1752695;81;25608;-71
2022/03/17 01:37:47;;;;;;;101.20;54.25;;;;;;;0.55;67.02;101970.38;1752709;81;25980;-71
2022/03/17 01:40:15;;;;;;;97.45;52.78;;;;;;;0.51;67.12;101974.48;1752752;81;25442;-71
2022/03/17 01:42:41;;;;;;;98.22;53.78;;;;;;;0.49;67.37;101975.16;1752694;81;27281;-71
2022/03/17 01:45:10;;;;;;;95.92;49.55;;;;;;;0.47;67.06;101980.39;1752653;81;25638;-70
2022/03/17 01:47:38;;;;;;;64.30;36.03;;;;;;;0.44;66.98;101979.45;1752884;81;25381;-71
2022/03/17 01:50:11;;;;;;;89.65;49.67;;;;;;;0.39;66.86;101986.70;1752674;81;25960;-70
2022/03/17 01:52:39;;;;;;;84.40;48.90;;;;;;;0.33;66.75;101983.00;1752742;81;25539;-70
2022/03/17 01:55:08;;;;;;;90.12;48.63;;;;;;;0.27;66.66;101986.97;1752719;81;28213;-71
2022/03/17 01:57:34;;;;;;;81.30;45.95;;;;;;;0.22;66.78;101984.89;1752730;81;25620;-71
2022/03/17 02:00:03;;;;;;;90.60;48.35;;;;;;;0.13;66.71;101986.91;1752773;81;25496;-71
2022/03/17 02:02:31;;;;;;;82.90;46.48;;;;;;;0.07;66.88;101985.05;1751282;81;25920;-71
2022/03/17 02:04:57;;;;;;;83.15;43.42;;;;;;;-0.03;66.93;101978.75;1750845;81;25555;-71
2022/03/17 02:07:24;;;;;;;89.20;46.13;;;;;;;-0.08;67.01;101986.50;1750808;81;27318;-71
2022/03/17 02:09:50;;;;;;;73.78;43.50;;;;;;;-0.15;67.14;101984.32;1750743;82;25613;-71
2022/03/17 02:15:06;;;;;;;94.97;44.45;;;;;;;-0.26;67.39;101990.17;1750804;82;25904;-70
2022/03/17 02:17:43;;;;;;;85.75;46.37;;;;;;;-0.32;67.54;101982.48;1750869;82;25416;-71
2022/03/17 02:20:15;;;;;;;81.20;43.85;;;;;;;-0.36;67.59;101987.86;1749555;82;27450;-70
2022/03/17 02:22:49;;;;;;;78.30;44.05;;;;;;;-0.39;67.74;101985.09;1750730;82;25606;-70
2022/03/17 02:25:36;;;;;;;84.50;43.87;;;;;;;-0.43;67.78;101986.48;1750858;81;25634;-71
2022/03/17 02:28:06;;;;;;;86.65;44.63;;;;;;;-0.46;67.73;101987.38;1750827;82;26471;-71
2022/03/17 02:30:34;;;;;;;;;;;;;;;-0.50;67.99;101989.60;1753421;82;25195;-70
2022/03/17 02:33:06;;;;;;;79.35;44.55;;;;;;;-0.54;68.09;101992.86;1750785;82;27268;-71
2022/03/17 02:35:37;;;;;;;85.83;46.42;;;;;;;-0.59;68.12;101988.12;1750724;82;25390;-71
2022/03/17 02:38:06;;;;;;;96.95;47.70;;;;;;;-0.62;68.07;101995.14;1750779;82;25395;-71
2022/03/17 02:40:35;;;;;;;90.35;47.30;;;;;;;-0.63;68.17;101993.48;1750755;81;26090;-71
2022/03/17 02:43:04;;;;;;;87.85;46.18;;;;;;;-0.65;68.27;101995.00;1751028;81;25609;-72
2022/03/17 02:45:31;;;;;;;82.50;45.65;;;;;;;-0.69;68.58;101995.08;1750931;82;27494;-72
2022/03/17 02:47:57;;;;;;;82.92;43.48;;;;;;;-0.73;68.73;102000.48;1750702;81;25547;-71
2022/03/17 02:50:24;;;;;;;79.15;42.17;;;;;;;-0.73;68.55;102006.28;1750779;81;25548;-71
2022/03/17 02:52:51;;;;;;;79.72;42.05;;;;;;;-0.75;68.78;101998.50;1750729;82;25942;-71
2022/03/17 02:55:17;;;;;;;80.28;44.95;;;;;;;-0.75;69.07;102006.47;1750801;82;25470;-71
2022/03/17 02:57:45;;;;;;;83.60;46.77;;;;;;;-0.78;68.85;102006.36;1750770;82;27980;-71
2022/03/17 03:00:14;;;;;;;84.13;43.48;;;;;;;-0.79;69.04;102011.86;1725253;82;25496;-71
2022/03/17 03:02:44;;;;;;;82.50;43.58;;;;;;;-0.81;68.96;102010.72;1747444;82;25743;-71
2022/03/17 03:05:10;;;;;;;75.65;41.70;;;;;;;-0.83;68.67;102017.25;1745944;82;25914;-71
2022/03/17 03:07:37;;;;;;;82.90;43.23;;;;;;;-0.85;68.64;102024.56;1745974;82;25605;-71
2022/03/17 03:10:06;;;;;;;73.80;40.38;;;;;;;-0.88;68.84;102013.02;1745883;82;27405;-71
2022/03/17 03:12:32;;;;;;;73.95;41.15;;;;;;;-0.91;68.85;102024.02;1745890;82;25217;-71
2022/03/17 03:14:59;;;;;;;70.37;39.05;;;;;;;-0.95;68.94;102027.05;1745884;82;25546;-71
2022/03/17 03:17:25;;;;;;;75.55;42.25;;;;;;;-1.00;68.93;102025.98;1745822;82;26056;-71
2022/03/17 03:19:55;;;;;;;80.70;42.45;;;;;;;-1.03;68.92;102028.50;1745905;82;25528;-71
2022/03/17 03:22:21;;;;;;;;;;;;;;;-1.06;68.85;102029.38;1748535;82;27337;-71
2022/03/17 03:24:48;;;;;;;75.30;38.60;;;;;;;-1.12;68.94;102036.28;1745894;82;25330;-71
2022/03/17 03:27:15;;;;;;;83.52;42.03;;;;;;;-1.20;68.99;102037.20;1745844;82;25615;-71
2022/03/17 03:29:41;;;;;;;82.92;44.80;;;;;;;-1.24;69.16;102045.72;1720334;82;26175;-72
2022/03/17 03:32:09;;;;;;;80.80;43.70;;;;;;;-1.31;69.08;102043.02;1745861;82;25396;-71
2022/03/17 03:34:35;;;;;;;82.78;42.62;;;;;;;-1.35;69.08;102045.20;1745828;82;26899;-72
2022/03/17 03:39:47;;;;;;;84.13;45.67;;;;;;;-1.41;69.06;102053.92;1745910;82;25576;-70
2022/03/17 03:42:14;;;;;;;81.75;43.95;;;;;;;-1.41;69.47;102051.78;1745865;82;26514;-71
2022/03/17 03:44:40;;;;;;;77.30;42.70;;;;;;;-1.46;69.37;102058.97;1745918;82;25404;-71
2022/03/17 03:47:07;;;;;;;87.92;46.55;;;;;;;-1.49;69.29;102054.03;1745852;82;27314;-71
2022/03/17 03:49:38;;;;;;;86.45;45.75;;;;;;;-1.49;69.59;102065.16;1745810;82;25367;-71
2022/03/17 03:52:04;;;;;;;86.10;45.28;;;;;;;-1.53;69.45;102063.38;1745918;82;25410;-71
2022/03/17 03:54:30;;;;;;;87.88;45.90;;;;;;;-1.55;69.77;102062.72;1745878;82;26528;-71
2022/03/17 03:56:57;;;;;;;84.42;45.33;;;;;;;-1.58;69.67;102071.07;1720508;82;25402;-71
2022/03/17 03:59:31;;;;;;;84.00;43.95;;;;;;;-1.60;69.96;102070.41;1745837;82;27468;-72
2022/03/17 04:02:02;;;;;;;81.12;43.92;;;;;;;-1.62;69.98;102075.08;1745107;82;25382;-72
2022/03/17 04:04:30;;;;;;;74.75;41.88;;;;;;;-1.64;70.11;102070.47;1741957;82;25551;-71
2022/03/17 04:06:59;;;;;;;77.85;41.20;;;;;;;-1.66;70.15;102072.49;1742361;81;26001;-71
2022/03/17 04:09:30;;;;;;;81.42;40.90;;;;;;;-1.70;70.09;102074.18;1742524;82;25613;-70
2022/03/17 04:11:57;;;;;;;76.97;40.73;;;;;;;-1.72;70.19;102078.85;1742451;82;27357;-71
2022/03/17 04:14:24;;;;;;;67.95;38.48;;;;;;;-1.74;70.48;102085.33;1742243;82;27113;-70
2022/03/17 04:16:51;;;;;;;78.95;42.00;;;;;;;-1.77;70.35;102088.34;1742398;82;25544;-70
2022/03/17 04:19:18;;;;;;;76.92;39.58;;;;;;;-1.80;70.45;102088.73;1742356;82;26036;-70
2022/03/17 04:21:49;;;;;;;69.47;39.25;;;;;;;-1.79;70.66;102090.36;1742408;82;25616;-70
2022/03/17 04:24:17;;;;;;;81.55;44.27;;;;;;;-1.84;70.79;102089.58;1742389;82;27166;-71
2022/03/17 04:26:45;;;;;;;84.37;43.42;;;;;;;-1.84;70.91;102091.41;1742300;82;25618;-71
2022/03/17 04:29:12;;;;;;;77.20;40.45;;;;;;;-1.85;71.29;102107.84;1742396;82;25415;-71
2022/03/17 04:31:42;;;;;;;72.75;40.43;;;;;;;-1.85;71.48;102105.70;1742350;82;26520;-71
2022/03/17 04:34:10;;;;;;;73.67;41.13;;;;;;;-1.86;71.42;102102.20;1742489;82;25557;-71
2022/03/17 04:36:38;;;;;;;79.92;40.65;;;;;;;-1.85;71.47;102111.82;1742362;82;27341;-71
2022/03/17 04:39:07;;;;;;;78.70;41.85;;;;;;;-1.85;71.41;102113.66;1742274;82;25545;-71
2022/03/17 04:41:33;;;;;;;72.03;40.03;;;;;;;-1.85;71.40;102114.98;1742389;82;25442;-71
2022/03/17 04:44:00;;;;;;;75.00;41.48;;;;;;;-1.86;71.25;102112.00;1742328;82;25913;-71
2022/03/17 04:46:26;;;;;;;73.57;39.83;;;;;;;-1.88;71.38;102119.62;1742427;82;25359;-71
2022/03/17 04:48:53;;;;;;;85.77;44.13;;;;;;;-1.88;71.06;102118.81;1742403;82;27306;-71
2022/03/17 04:51:19;;;;;;;84.25;44.33;;;;;;;-1.88;70.99;102122.28;1742289;82;25395;-71
2022/03/17 04:53:45;;;;;;;73.70;42.60;;;;;;;-1.88;70.79;102122.28;1742391;82;25355;-71
2022/03/17 04:56:16;;;;;;;76.30;42.10;;;;;;;-1.88;70.94;102126.25;1742347;82;25956;-71
2022/03/17 04:58:43;;;;;;;75.32;41.63;;;;;;;-1.88;70.95;102125.44;1742384;82;25597;-70
2022/03/17 05:01:12;;;;;;;73.33;39.90;;;;;;;-1.89;71.12;102128.61;1742355;82;27347;-71
2022/03/17 05:03:39;;;;;;;73.70;38.53;;;;;;;-1.88;71.73;102135.54;1748650;82;25383;-71
2022/03/17 05:06:06;;;;;;;75.12;39.42;;;;;;;-1.87;72.04;102133.73;1750846;82;25592;-70
2022/03/17 05:08:36;;;;;;;66.57;37.42;;;;;;;-1.81;72.32;102140.14;1750805;82;25910;-70
2022/03/17 05:11:04;;;;;;;68.92;37.53;;;;;;;-1.78;72.83;102137.94;1725477;82;25564;-71
2022/03/17 05:13:31;;;;;;;71.35;38.80;;;;;;;-1.74;72.91;102135.75;1750793;82;26923;-70
2022/03/17 05:15:58;;;;;;;76.80;37.45;;;;;;;-1.70;72.67;102147.14;1750788;81;25585;-70
2022/03/17 05:18:25;;;;;;;69.67;38.83;;;;;;;-1.66;73.21;102147.61;1750923;82;25549;-70
2022/03/17 05:20:52;;;;;;;78.20;40.92;;;;;;;-1.61;73.30;102151.05;1750839;81;25897;-70
2022/03/17 05:23:21;;;;;;;71.77;38.90;;;;;;;-1.59;73.33;102149.84;1750816;81;25461;-71
2022/03/17 05:25:49;;;;;;;76.40;39.95;;;;;;;-1.54;73.37;102155.42;1750806;82;27285;-72
2022/03/17 05:28:17;;;;;;;76.85;42.73;;;;;;;-1.47;73.39;102160.83;1750924;82;25551;-71
2022/03/17 05:30:45;;;;;;;74.92;40.78;;;;;;;-1.39;73.53;102163.91;1750830;82;25549;-71
2022/03/17 05:33:12;;;;;;;75.83;41.33;;;;;;;-1.32;73.81;102166.97;1750668;82;25904;-71
2022/03/17 05:35:41;;;;;;;77.17;42.98;;;;;;;-1.24;73.93;102171.38;1750797;82;25617;-71
2022/03/17 05:38:08;;;;;;;84.67;43.80;;;;;;;-1.14;74.05;102167.11;1750749;81;27312;-71
2022/03/17 05:40:35;;;;;;;73.65;41.02;;;;;;;-1.04;73.90;102161.48;1750688;81;25454;-71
2022/03/17 05:43:06;;;;;;;77.70;41.45;;;;;;;-0.93;74.07;102168.19;1750751;81;25604;-71
2022/03/17 05:45:32;;;;;;;78.92;41.85;;;;;;;-0.83;74.05;102172.69;1750741;81;26454;-71
2022/03/17 05:48:03;;;;;;;73.62;41.05;;;;;;;-0.72;74.21;102170.86;1750766;81;25380;-71
2022/03/17 05:50:38;;;;;;;72.35;41.08;;;;;;;-0.61;74.08;102179.69;1750745;82;27359;-71
2022/03/17 05:53:08;;;;;;;68.78;39.13;;;;;;;-0.47;74.14;102179.83;1750659;81;25431;-71
2022/03/17 05:55:36;;;;;;;75.87;42.20;;;;;;;-0.33;74.36;102188.24;1750378;82;25660;-72
2022/03/17 05:58:04;;;;;;;76.75;41.77;;;;;;;-0.16;74.37;102190.14;1750898;81;26516;-72
2022/03/17 06:00:33;;;;;;;73.45;39.92;;;;;;;0.01;74.39;102189.37;1750829;82;25603;-72
2022/03/17 06:03:00;;;;;;;80.23;42.80;;;;;;;0.19;74.23;102191.58;1749280;80;27559;-72
2022/03/17 06:05:30;;;;;;;80.77;42.62;;;;;;;0.35;74.09;102189.13;1745801;82;25394;-73
2022/03/17 06:08:00;;;;;;;;;;;;;;;0.53;73.84;102192.64;1748424;82;25633;-74
2022/03/17 06:10:32;;;;;;;;;;;;;;;0.69;73.45;102195.48;1748355;82;25915;-72
2022/03/17 06:13:01;;;;;;;67.45;39.42;;;;;;;0.85;73.34;102195.17;1746006;82;25395;-73
2022/03/17 06:15:30;;;;;;;67.53;39.73;;;;;;;1.01;72.67;102199.34;1746041;82;33872;-73
2022/03/17 06:17:59;;;;;;;76.57;43.07;;;;;;;1.14;72.45;102199.08;1746093;82;25592;-73
2022/03/17 06:20:30;;;;;;;73.13;42.37;;;;;;;1.31;72.19;102201.70;1745979;82;25623;-72
2022/03/17 06:23:00;;;;;;;72.47;39.55;;;;;;;1.46;72.07;102202.87;1745723;82;25910;-72
2022/03/17 06:25:30;;;;;;;70.55;38.65;;;;;;;1.65;71.86;102202.61;1745044;82;25766;-72
2022/03/17 06:27:57;;;;;;;64.25;37.65;;;;;;;1.83;71.86;102198.84;1745297;82;27893;-72
2022/03/17 06:30:35;;;;;;;71.87;40.58;;;;;;;2.09;71.68;102197.22;1745644;82;25596;-73
2022/03/17 06:33:01;;;;;;;68.47;38.80;;;;;;;2.30;71.47;102191.35;1745771;82;25406;-73
2022/03/17 06:35:28;;;;;;;68.25;39.13;;;;;;;2.57;70.96;102194.80;1745653;82;26464;-72
2022/03/17 06:37:57;;;;;;;64.62;37.35;;;;;;;2.79;70.72;102198.05;1745741;82;25704;-73
2022/03/17 06:40:26;;;;;;;71.37;38.20;;;;;;;3.05;70.22;102198.49;1745827;82;27940;-73
2022/03/17 06:42:54;;;;;;;70.30;39.63;;;;;;;3.29;70.09;102200.14;1745872;82;25541;-73
2022/03/17 06:45:22;;;;;;;66.02;37.58;;;;;;;3.60;70.11;102199.34;1745735;82;25577;-73
2022/03/17 06:47:48;;;;;;;66.95;39.13;;;;;;;3.88;69.49;102203.47;1745042;82;25905;-72
2022/03/17 06:50:17;;;;;;;68.80;37.48;;;;;;;4.21;68.92;102219.83;1745239;82;25641;-72
2022/03/17 06:52:44;;;;;;;62.97;37.60;;;;;;;4.45;68.31;102212.80;1745804;82;27316;-72
2022/03/17 06:55:11;;;;;;;70.00;38.35;;;;;;;4.68;66.96;102221.03;1744818;82;25359;-72
2022/03/17 06:57:38;;;;;;;64.50;36.88;;;;;;;4.87;66.12;102230.44;1745728;82;25601;-72
2022/03/17 07:00:10;;;;;;;60.05;36.83;;;;;;;5.05;66.04;102226.37;1745653;82;26547;-72
2022/03/17 07:02:37;;;;;;;62.03;37.70;;;;;;;5.31;65.56;102223.60;1745666;82;25396;-72
2022/03/17 07:05:05;;;;;;;60.85;36.70;;;;;;;5.63;65.37;102233.60;1745740;82;27304;-73
2022/03/17 07:07:32;;;;;;;62.83;36.42;;;;;;;5.95;65.48;102229.33;1745674;82;25604;-73
2022/03/17 07:09:58;;;;;;;62.38;36.77;;;;;;;6.29;65.07;102236.36;1745768;82;25398;-72
2022/03/17 07:12:24;;;;;;;61.98;36.98;;;;;;;6.52;62.88;102235.03;1745725;82;25924;-72
2022/03/17 07:14:51;;;;;;;64.30;35.28;;;;;;;6.73;62.59;102230.91;1745724;82;25410;-72
2022/03/17 07:17:22;;;;;;;63.17;35.40;;;;;;;6.90;61.42;102237.73;1745781;82;27990;-72
2022/03/17 07:19:58;;;;;;;57.40;34.63;;;;;;;7.18;60.93;102246.11;1745871;82;25642;-73
2022/03/17 07:22:28;;;;;;;61.08;35.35;;;;;;;7.30;60.47;102240.16;1745782;82;25628;-73
2022/03/17 07:24:54;;;;;;;58.02;35.78;;;;;;;7.49;60.39;102235.39;1745654;82;26538;-73
2022/03/17 07:27:21;;;;;;;56.13;35.45;;;;;;;7.87;60.22;102240.68;1745731;82;25563;-73
2022/03/17 07:29:49;;;;;;;58.98;35.95;;;;;;;8.09;58.88;102243.48;1745768;82;27395;-73
2022/03/17 07:32:15;;;;;;;58.45;34.70;;;;;;;8.13;57.20;102245.96;1745693;82;25380;-73
2022/03/17 07:34:42;;;;;;;58.68;35.90;;;;;;;8.27;57.00;102246.98;1746291;82;25543;-73
2022/03/17 07:37:09;;;;;;;57.70;34.60;;;;;;;8.32;55.65;102238.44;1748034;82;25641;-73
2022/03/17 07:39:35;;;;;;;54.88;34.13;;;;;;;8.41;55.70;102249.11;1748037;82;25124;-73
2022/03/17 07:42:04;;;;;;;53.25;34.53;;;;;;;8.58;55.43;102247.78;1745902;82;28182;-73
2022/03/17 07:44:31;;;;;;;54.23;34.65;;;;;;;8.67;55.24;102256.80;1745681;82;26312;-73
2022/03/17 07:46:57;;;;;;;57.80;34.95;;;;;;;8.70;54.42;102254.94;1745717;82;25547;-73
2022/03/17 07:49:23;;;;;;;53.75;34.95;;;;;;;8.72;54.16;102257.69;1720500;82;25989;-74
2022/03/17 07:51:50;;;;;;;51.65;32.83;;;;;;;8.91;54.20;102256.86;1745914;82;25690;-74
2022/03/17 07:54:16;;;;;;;54.60;33.45;;;;;;;9.37;53.51;102257.97;1745871;82;27336;-74
2022/03/17 07:56:43;;;;;;;54.55;33.92;;;;;;;9.91;52.34;102265.30;1745843;82;25354;-73
2022/03/17 07:59:09;;;;;;;55.30;32.90;;;;;;;10.56;53.16;102260.69;1745976;82;25533;-73
2022/03/17 08:01:35;;;;;;;55.43;33.35;;;;;;;11.52;52.56;102268.16;1745903;82;25965;-74
2022/03/17 08:04:02;;;;;;;45.60;30.90;;;;;;;12.25;50.90;102264.48;1748327;82;25537;-73
2022/03/17 08:06:29;;;;;;;48.65;30.25;;;;;;;12.84;48.12;102264.41;1751081;82;27861;-72
2022/03/17 08:08:56;;;;;;;49.83;31.17;;;;;;;13.12;46.03;102267.56;1751201;82;25429;-73
2022/03/17 08:11:23;;;;;;;47.08;29.20;;;;;;;13.48;47.42;102269.33;1751574;82;25163;-72
2022/03/17 08:13:50;;;;;;;47.33;28.52;;;;;;;14.03;46.38;102274.67;1753454;82;26126;-72
2022/03/17 08:16:17;;;;;;;46.05;28.15;;;;;;;14.23;44.55;102273.70;1754121;82;25211;-72
2022/03/17 08:18:44;;;;;;;45.28;26.93;;;;;;;14.51;44.16;102285.16;1754184;82;27363;-73
2022/03/17 08:21:13;;;;;;;53.35;30.52;;;;;;;14.49;43.38;102277.00;1754028;81;25199;-72
2022/03/17 08:23:39;;;;;;;46.98;30.05;;;;;;;14.54;43.00;102276.42;1751396;82;25539;-73
2022/03/17 08:26:06;;;;;;;46.48;28.12;;;;;;;14.68;42.53;102276.58;1725553;82;25929;-73
2022/03/17 08:28:33;;;;;;;48.75;29.50;;;;;;;14.84;42.19;102282.66;1750950;82;25539;-74
2022/03/17 08:30:59;;;;;;;62.43;51.70;;;;;;;14.88;42.73;102285.09;1750919;82;27303;-73
2022/03/17 08:33:26;;;;;;;44.27;28.47;;;;;;;14.83;41.57;102291.95;1750829;81;25399;-73
2022/03/17 08:35:53;;;;;;;44.50;28.10;;;;;;;14.71;40.62;102292.34;1725453;82;25559;-73
2022/03/17 08:38:20;;;;;;;45.08;28.85;;;;;;;14.70;40.61;102292.08;1750914;82;25894;-73
2022/03/17 08:40:47;;;;;;;51.48;29.48;;;;;;;14.53;39.00;102293.84;1750904;82;25368;-73
2022/03/17 08:43:13;;;;;;;51.35;28.67;;;;;;;14.34;39.83;102292.39;1750893;81;27922;-72
2022/03/17 08:51:11;;;;;;;83.60;75.65;;;;;;;14.36;38.82;102295.63;1750879;82;25995;-73
2022/03/17 08:53:38;;;;;;;63.50;53.83;;;;;;;14.12;38.40;102288.75;1751189;82;25487;-72
2022/03/17 08:56:05;;;;;;;36.48;22.15;;;;;;;14.04;37.82;102288.55;1750927;82;27260;-72
2022/03/17 08:58:34;;;;;;;47.03;27.67;;;;;;;13.85;38.52;102292.50;1750802;82;25478;-73
2022/03/17 09:01:00;;;;;;;43.20;28.70;;;;;;;14.10;39.42;102289.59;1750763;82;25665;-73
2022/03/17 09:03:30;;;;;;;46.92;28.17;;;;;;;14.42;40.01;102290.14;1749833;82;26563;-73
2022/03/17 09:05:58;;;;;;;50.45;28.47;;;;;;;14.85;39.46;102298.48;1742781;82;25613;-72
2022/03/17 09:08:26;;;;;;;41.00;27.82;;;;;;;15.09;38.44;102303.92;1742600;81;27282;-74
2022/03/17 09:10:55;;;;;;;42.65;26.27;;;;;;;15.24;38.57;102302.94;1742326;82;25588;-74
2022/03/17 09:13:25;;;;;;;40.00;26.50;;;;;;;15.41;37.18;102296.97;1742665;82;25413;-73
2022/03/17 09:15:53;;;;;;;47.30;26.00;;;;;;;15.27;36.74;102300.97;1742431;82;25992;-73
2022/03/17 09:18:21;;;;;;;39.60;24.40;;;;;;;15.31;36.24;102297.94;1742511;82;25591;-73
2022/03/17 09:20:49;;;;;;;38.35;25.35;;;;;;;15.36;36.76;102299.23;1742398;82;27339;-73
2022/03/17 09:23:16;;;;;;;45.33;27.27;;;;;;;15.35;35.67;102307.14;1742356;82;25418;-73
2022/03/17 09:25:43;;;;;;;41.23;24.77;;;;;;;15.35;36.60;102299.52;1742451;82;25445;-73
2022/03/17 09:28:10;;;;;;;38.63;23.22;;;;;;;15.27;35.87;102296.88;1742493;82;25894;-73
2022/03/17 09:30:36;;;;;;;34.05;22.45;;;;;;;15.25;36.63;102301.81;1742574;81;25458;-73
2022/03/17 09:33:05;;;;;;;40.52;25.92;;;;;;;15.44;36.64;102305.94;1742533;82;27329;-72
2022/03/17 09:35:31;;;;;;;39.53;24.10;;;;;;;15.85;37.10;102307.59;1742735;81;25370;-70
2022/03/17 09:37:58;;;;;;;38.10;22.62;;;;;;;16.09;36.08;102304.48;1743232;82;25822;-73
2022/03/17 09:40:25;;;;;;;37.83;22.82;;;;;;;16.07;35.57;102297.95;1743565;82;25933;-71
2022/03/17 09:43:18;;;;;;;39.95;23.60;;;;;;;16.11;35.65;102302.30;1742758;82;25705;-72
2022/03/17 09:45:20;;;;;;;35.60;22.82;;;;;;;16.32;36.15;102297.30;1739544;82;27428;-73
2022/03/17 09:47:48;;;;;;;37.65;23.02;;;;;;;16.83;35.27;102287.37;1742566;82;25510;-72
2022/03/17 09:50:15;;;;;;;33.80;21.82;;;;;;;16.77;33.31;102298.40;1723664;82;25315;-71
2022/03/17 09:52:44;;;;;;;35.20;22.05;;;;;;;16.63;34.91;102293.45;1723935;82;25764;-72
2022/03/17 09:55:11;;;;;;;33.10;21.65;;;;;;;17.08;33.79;102289.62;1742825;82;25687;-71
2022/03/17 09:57:42;;;;;;;34.10;20.43;;;;;;;17.49;33.21;102299.70;1742957;82;27937;-72
2022/03/17 10:00:12;;;;;;;33.65;21.42;;;;;;;17.94;32.59;102300.35;1742611;82;25304;-72
2022/03/17 10:02:40;;;;;;;38.67;21.60;;;;;;;17.80;31.08;102299.00;1742157;81;25396;-72
2022/03/17 10:05:11;;;;;;;32.45;21.40;;;;;;;17.89;31.43;102295.83;1725374;81;25949;-72
2022/03/17 10:07:39;;;;;;;33.35;21.30;;;;;;;18.48;32.13;102290.80;1752589;81;25379;-75
2022/03/17 10:10:08;;;;;;;33.33;21.15;;;;;;;19.10;31.59;102304.22;1752582;81;27397;-72
2022/03/17 10:12:34;;;;;;;40.98;21.23;;;;;;;19.47;30.21;102297.93;1752584;81;25642;-73
2022/03/17 10:15:01;;;;;;;35.60;21.00;;;;;;;19.52;29.42;102297.77;1752220;81;25669;-73
2022/03/17 10:17:38;;;;;;;27.55;18.60;;;;;;;19.74;30.08;102300.39;1752445;81;25984;-72
2022/03/17 10:20:31;;;;;;;29.10;18.30;;;;;;;19.91;29.70;102299.59;1752637;81;25714;-72
2022/03/17 10:22:58;;;;;;;32.70;19.62;;;;;;;20.13;27.44;102300.54;1751893;81;27312;-72
2022/03/17 10:25:29;;;;;;;30.45;21.12;;;;;;;19.95;28.71;102296.99;1752570;81;29862;-72
2022/03/17 10:27:57;;;;;;;27.40;19.45;;;;;;;20.07;28.83;102294.97;1752395;81;25602;-72
2022/03/17 10:30:32;;;;;;;28.32;18.92;;;;;;;20.21;28.43;102323.08;1752355;81;25909;-72
2022/03/17 10:33:03;;;;;;;36.13;20.62;;;;;;;20.13;28.23;102292.30;1751838;81;25650;-72
2022/03/17 10:35:34;;;;;;;32.93;21.40;;;;;;;20.14;27.80;102301.59;1752469;81;28015;-72
2022/03/17 10:38:19;;;;;;;28.85;19.45;;;;;;;19.65;28.56;102294.62;1752150;81;25693;-72
2022/03/17 10:41:02;;;;;;;28.10;19.75;;;;;;;19.74;29.21;102299.02;1752499;81;25227;-73
2022/03/17 10:43:32;;;;;;;31.42;20.85;;;;;;;20.46;29.46;102292.52;1752458;81;25919;-73
2022/03/17 10:46:20;;;;;;;28.32;18.60;;;;;;;21.42;27.58;102297.59;1752487;81;25536;-73
2022/03/17 10:48:56;;;;;;;28.02;18.52;;;;;;;21.97;28.15;102293.53;1752428;81;27328;-73
2022/03/17 10:51:40;;;;;;;24.85;18.45;;;;;;;22.60;25.93;102290.62;1752180;81;25577;-74
2022/03/17 10:54:20;;;;;;;25.17;17.55;;;;;;;22.97;27.18;102285.67;1752395;81;25632;-73
2022/03/17 10:57:05;;;;;;;24.67;16.67;;;;;;;23.15;24.67;102277.41;1752403;81;25927;-73
2022/03/17 10:59:46;;;;;;;22.20;16.27;;;;;;;23.05;25.69;102286.93;1752239;81;25700;-74
2022/03/17 11:02:17;;;;;;;26.90;16.67;;;;;;;23.25;24.91;102285.80;1752449;81;27876;-73
2022/03/17 11:04:46;;;;;;;24.10;16.82;;;;;;;21.77;24.52;102287.70;1751513;81;25567;-73
2022/03/17 11:07:14;;;;;;;28.05;17.42;;;;;;;21.50;24.50;102284.92;1750463;82;25374;-73
2022/03/17 11:09:43;;;;;;;25.27;17.82;;;;;;;21.78;25.35;102279.69;1750356;82;25961;-73
2022/03/17 11:12:12;;;;;;;26.12;17.05;;;;;;;21.83;24.71;102273.97;1750730;81;25630;-73
2022/03/17 11:14:51;;;;;;;20.25;16.02;;;;;;;21.80;24.66;102277.39;1750183;82;27347;-72
2022/03/17 11:17:26;;;;;;;20.92;16.17;;;;;;;21.88;24.83;102269.38;1750600;82;35095;-72
2022/03/17 11:19:55;;;;;;;28.57;17.25;;;;;;;21.88;24.83;102271.59;1728872;82;25405;-72
2022/03/17 11:22:23;;;;;;;25.37;17.87;;;;;;;20.98;25.69;102268.17;1724695;82;25952;-72
2022/03/17 11:25:18;;;;;;;26.87;16.52;;;;;;;21.07;25.55;102262.61;1725060;82;25422;-71
2022/03/17 11:27:47;;;;;;;25.30;16.87;;;;;;;20.64;24.97;102265.03;1750634;82;27312;-72
2022/03/17 11:30:15;;;;;;;21.75;16.35;;;;;;;20.32;25.80;102265.83;1750524;82;25526;-72